Pagina principale
METAR-TAF:

METAR-TAF

Aeroporti :

Aeroporto Internazionale di Gedda-Re Abd al-Aziz

Gedda, Arabia Saudita

latitudine: 21-42N, longitudine: 039-11E, altezza: 15 m

Osservazione

Il bollettino è stato emesso 1 ora e 11 minuti fa, alle 02:00 UTC
Vento calmo
Temperature 29°C
Umidità 74%
Pressione 1009 hPa
Visibilità 10 km o più
Nuvoloso ad un'altezza di 4000 ft

METAR: OEJN 160200Z 00000KT 9999 BKN040 29/24 Q1009 NOSIG

Ora: 06:11 (03:11 UTC)

Previsione

Il bollettino è stato emesso 4 ore e 11 minuti fa, alle 23:00 UTC
Previsione valida dal 16 alle 00 UTC al 17 alle 06 UTC
Vento 6 kt da est/nord-est
Visibilità: 7000 m
Poco nuvoloso ad un'altezza di 4000 ft
Evoluzione graduale
dal 16 alle 08 UTC al 16 alle 10 UTC
Vento 12 kt da ovest

TAF: OEJN 152300Z 1600/1706 06006KT 7000 FEW040 BECMG 1608/1610 27012KT

Osservazioni e previsioni meteorologiche di più di 4000 aeroporti (messaggi METAR e TAF).

Le stazioni disponibili sono rappresentate dai dischi gialli e rossi sulla carta.

Puntare il mouse per vedere il nome della stazione.

Clicca sopra per visualizzare le osservazioni e previsioni meteorologiche.

Per cambiare la mappa : fare clic sui pulsanti verdi con una croce nera per ingrandire, il pulsante verde con un trattino per diminuire, o sulla freccia verde per le mappe adiacenti.


METAR-TAF: